createdAt,value
2022-08-31T00:01:30.364Z,91.50
2022-08-31T00:06:34.230Z,91.70
2022-08-31T00:11:36.221Z,92.00
2022-08-31T00:16:42.699Z,92.10
2022-08-31T00:21:44.984Z,92.20
2022-08-31T00:26:46.998Z,92.50
2022-08-31T00:31:48.831Z,92.70
2022-08-31T00:36:50.600Z,92.80
2022-08-31T00:41:52.447Z,93.00
2022-08-31T00:46:56.214Z,93.10
2022-08-31T00:52:08.451Z,93.30
2022-08-31T00:57:11.726Z,93.40
2022-08-31T01:02:13.458Z,93.50
2022-08-31T01:07:15.337Z,93.70
2022-08-31T01:12:17.233Z,93.80
2022-08-31T01:17:20.654Z,94.10
2022-08-31T01:23:00.114Z,94.20
2022-08-31T01:28:06.521Z,94.30
2022-08-31T01:33:09.256Z,94.60
2022-08-31T01:38:11.003Z,94.80
2022-08-31T01:43:12.644Z,95.00
2022-08-31T01:48:14.564Z,95.20
2022-08-31T01:53:16.326Z,95.50
2022-08-31T01:58:18.021Z,95.80
2022-08-31T02:03:19.972Z,95.90
2022-08-31T02:08:21.830Z,96.00
2022-08-31T02:13:23.487Z,96.20
2022-08-31T02:18:25.951Z,96.50
2022-08-31T02:23:27.715Z,96.70
2022-08-31T02:28:29.456Z,96.90
2022-08-31T02:33:31.465Z,97.00
2022-08-31T02:38:35.071Z,97.10
2022-08-31T02:43:36.776Z,97.20
2022-08-31T02:48:38.449Z,97.20
2022-08-31T02:53:40.169Z,97.30
2022-08-31T02:58:42.333Z,97.30
2022-08-31T03:03:47.115Z,97.30
2022-08-31T03:08:51.057Z,97.50
2022-08-31T03:13:57.774Z,97.70
2022-08-31T03:19:00.219Z,97.70
2022-08-31T03:24:01.865Z,97.60
2022-08-31T03:29:03.709Z,98.10
2022-08-31T03:34:05.839Z,98.10
2022-08-31T03:39:07.488Z,98.10
2022-08-31T03:44:09.176Z,98.30
2022-08-31T03:49:12.403Z,98.40
2022-08-31T03:54:14.153Z,98.60
2022-08-31T03:59:16.152Z,98.80
2022-08-31T04:04:18.425Z,98.90
2022-08-31T04:09:20.125Z,99.20
2022-08-31T04:14:21.822Z,99.30
2022-08-31T04:19:24.836Z,99.50
2022-08-31T04:24:26.617Z,99.50
2022-08-31T04:29:28.390Z,99.60
2022-08-31T04:34:30.287Z,99.90
2022-08-31T04:39:33.899Z,99.90
2022-08-31T04:44:35.765Z,99.90
2022-08-31T04:49:37.770Z,99.90
2022-08-31T04:54:39.464Z,99.90
2022-08-31T04:59:41.151Z,99.90
2022-08-31T05:04:42.772Z,99.90
2022-08-31T05:09:44.446Z,99.90
2022-08-31T05:14:47.780Z,99.90
2022-08-31T05:19:52.158Z,99.90
2022-08-31T05:24:53.850Z,99.90
2022-08-31T05:29:55.516Z,99.90
2022-08-31T05:34:57.281Z,99.90
2022-08-31T05:39:59.136Z,99.90
2022-08-31T05:45:00.882Z,99.90
2022-08-31T05:50:02.563Z,99.90
2022-08-31T05:55:10.217Z,99.90
2022-08-31T06:00:12.287Z,99.90
2022-08-31T06:05:14.198Z,99.90
2022-08-31T06:10:16.484Z,99.90
2022-08-31T06:15:18.259Z,99.90
2022-08-31T06:20:20.162Z,99.90
2022-08-31T06:25:23.484Z,99.90
2022-08-31T06:30:27.458Z,99.90
2022-08-31T06:35:29.579Z,99.90
2022-08-31T06:40:31.266Z,99.90
2022-08-31T06:45:33.021Z,99.90
2022-08-31T06:50:35.132Z,99.90
2022-08-31T06:55:37.198Z,99.90
2022-08-31T07:00:38.865Z,99.90
2022-08-31T07:05:40.482Z,99.90
2022-08-31T07:10:42.249Z,99.90
2022-08-31T07:15:43.942Z,99.90
2022-08-31T07:20:45.620Z,99.90
2022-08-31T07:25:47.240Z,99.90
2022-08-31T07:30:50.131Z,99.90
2022-08-31T07:35:52.033Z,99.90
2022-08-31T07:41:12.586Z,99.90
2022-08-31T07:46:14.730Z,99.90
2022-08-31T07:51:23.446Z,99.90
2022-08-31T07:56:25.548Z,99.90
2022-08-31T08:01:35.935Z,99.90
2022-08-31T08:06:38.026Z,99.90
2022-08-31T08:11:44.608Z,99.90
2022-08-31T08:16:46.191Z,99.90
2022-08-31T08:21:48.490Z,99.90
2022-08-31T08:26:54.468Z,99.90
2022-08-31T08:31:56.601Z,99.90
2022-08-31T08:36:58.427Z,99.90
2022-08-31T08:42:00.068Z,99.90
2022-08-31T08:47:06.363Z,99.90
2022-08-31T08:52:37.357Z,99.90
2022-08-31T08:57:42.490Z,99.90
2022-08-31T09:03:03.442Z,99.90
2022-08-31T09:08:41.551Z,99.90
2022-08-31T09:14:08.086Z,99.90
2022-08-31T09:19:15.430Z,99.90
2022-08-31T09:24:20.846Z,99.90
2022-08-31T09:29:29.439Z,99.90
2022-08-31T09:34:36.433Z,99.90
2022-08-31T09:39:38.073Z,99.90
2022-08-31T09:44:42.116Z,99.90
2022-08-31T09:49:54.862Z,99.90
2022-08-31T09:55:14.142Z,99.90
2022-08-31T10:00:25.978Z,99.90
2022-08-31T10:05:33.099Z,99.90
2022-08-31T10:10:38.397Z,99.90
2022-08-31T10:16:01.750Z,99.90
2022-08-31T10:21:21.310Z,99.90
2022-08-31T10:26:39.909Z,99.90
2022-08-31T10:31:48.408Z,99.90
2022-08-31T10:36:59.842Z,99.90
2022-08-31T10:42:07.191Z,99.90
2022-08-31T10:47:16.881Z,99.90
2022-08-31T10:52:34.536Z,99.90
2022-08-31T10:57:59.083Z,99.90
2022-08-31T11:03:28.937Z,99.90
2022-08-31T11:08:48.965Z,99.90
2022-08-31T11:14:18.610Z,99.60
2022-08-31T11:19:29.696Z,99.70
2022-08-31T11:24:55.675Z,99.00
2022-08-31T11:30:02.615Z,97.70
2022-08-31T11:35:10.724Z,96.60
2022-08-31T11:40:12.904Z,96.30
2022-08-31T11:45:32.925Z,95.70
2022-08-31T11:51:15.447Z,94.70
2022-08-31T11:56:36.149Z,94.60
2022-08-31T12:01:42.965Z,94.00
2022-08-31T12:06:50.526Z,93.70
2022-08-31T12:12:06.828Z,93.20
2022-08-31T12:17:54.807Z,92.80
2022-08-31T12:23:30.744Z,92.60
2022-08-31T12:29:14.432Z,91.90
2022-08-31T12:34:20.425Z,91.80
2022-08-31T12:39:28.341Z,91.70
2022-08-31T12:44:37.501Z,91.30
2022-08-31T12:50:03.624Z,91.30
2022-08-31T12:55:23.567Z,91.20
2022-08-31T13:00:30.969Z,90.90
2022-08-31T13:05:38.113Z,90.50
2022-08-31T13:10:39.801Z,90.10
2022-08-31T13:15:43.965Z,89.00
2022-08-31T13:20:46.745Z,87.70
2022-08-31T13:26:03.426Z,87.20
2022-08-31T13:31:11.717Z,88.20
2022-08-31T13:36:31.959Z,85.70
2022-08-31T13:41:40.751Z,85.40
2022-08-31T13:46:55.312Z,86.00
2022-08-31T13:51:57.372Z,86.10
2022-08-31T13:57:25.769Z,85.70
2022-08-31T14:02:36.343Z,85.50
2022-08-31T14:07:39.339Z,84.40
2022-08-31T14:12:51.614Z,82.10
2022-08-31T14:23:27.868Z,83.60
2022-08-31T14:28:43.601Z,82.50
2022-08-31T14:33:47.949Z,82.70
2022-08-31T14:38:51.995Z,82.10
2022-08-31T14:43:54.464Z,81.40
2022-08-31T14:48:56.579Z,81.80
2022-08-31T14:54:00.218Z,80.50
2022-08-31T14:59:04.718Z,80.30
2022-08-31T15:04:06.790Z,78.70
2022-08-31T15:09:09.078Z,78.80
2022-08-31T15:14:14.081Z,77.60
2022-08-31T15:19:16.463Z,76.50
2022-08-31T15:24:25.001Z,76.20
2022-08-31T15:29:30.130Z,75.90
2022-08-31T15:34:32.924Z,74.60
2022-08-31T15:39:43.260Z,76.50
2022-08-31T15:44:45.878Z,76.20
2022-08-31T15:49:47.617Z,77.60
2022-08-31T15:54:50.430Z,78.80
2022-08-31T15:59:52.488Z,79.60
2022-08-31T16:04:57.687Z,80.00
2022-08-31T16:09:59.414Z,79.80
2022-08-31T16:15:01.129Z,80.40
2022-08-31T16:20:03.541Z,78.80
2022-08-31T16:25:07.869Z,78.30
2022-08-31T16:30:12.190Z,79.20
2022-08-31T16:35:13.942Z,78.10
2022-08-31T16:40:16.335Z,79.10
2022-08-31T16:45:18.197Z,79.70
2022-08-31T16:50:20.013Z,79.60
2022-08-31T16:55:21.830Z,80.40
2022-08-31T17:00:27.582Z,80.50
2022-08-31T17:05:33.314Z,80.90
2022-08-31T17:10:35.069Z,81.10
2022-08-31T17:15:36.781Z,81.20
2022-08-31T17:20:40.876Z,81.80
2022-08-31T17:25:43.357Z,81.50
2022-08-31T17:30:46.809Z,81.90
2022-08-31T17:35:48.622Z,82.30
2022-08-31T17:40:50.735Z,83.40
2022-08-31T17:45:52.813Z,84.50
2022-08-31T17:50:57.083Z,85.80
2022-08-31T17:56:00.923Z,87.00
2022-08-31T18:01:07.128Z,88.20
2022-08-31T18:06:08.916Z,88.70
2022-08-31T18:11:10.832Z,89.70
2022-08-31T18:16:13.895Z,90.10
2022-08-31T18:21:22.329Z,90.30
2022-08-31T18:26:26.998Z,90.60
2022-08-31T18:31:30.701Z,90.80
2022-08-31T18:36:38.426Z,91.10
2022-08-31T18:41:58.780Z,91.30
2022-08-31T18:47:07.454Z,91.60
2022-08-31T18:52:19.233Z,91.90
2022-08-31T18:57:23.325Z,92.00
2022-08-31T19:02:25.294Z,92.10
2022-08-31T19:07:27.158Z,92.30
2022-08-31T19:12:29.463Z,92.50
2022-08-31T19:17:32.057Z,92.80
2022-08-31T19:22:34.122Z,93.00
2022-08-31T19:27:37.054Z,93.20
2022-08-31T19:32:38.755Z,93.50
2022-08-31T19:37:40.499Z,93.70
2022-08-31T19:43:00.076Z,93.90
2022-08-31T19:48:05.107Z,94.20
2022-08-31T19:53:07.191Z,94.40
2022-08-31T19:58:08.916Z,94.60
2022-08-31T20:03:12.805Z,94.70
2022-08-31T20:08:14.496Z,95.10
2022-08-31T20:13:16.254Z,95.40
2022-08-31T20:18:18.163Z,95.30
2022-08-31T20:23:21.313Z,95.40
2022-08-31T20:28:27.322Z,95.50
2022-08-31T20:33:29.179Z,95.60
2022-08-31T20:38:37.408Z,95.70
2022-08-31T20:43:39.542Z,95.70
2022-08-31T20:48:59.891Z,96.00
2022-08-31T20:54:01.564Z,96.00
2022-08-31T20:59:09.659Z,96.20
2022-08-31T21:04:11.327Z,96.70
2022-08-31T21:09:13.467Z,96.50
2022-08-31T21:14:18.061Z,96.60
2022-08-31T21:19:24.592Z,96.80
2022-08-31T21:24:26.219Z,96.90
2022-08-31T21:29:28.188Z,97.10
2022-08-31T21:34:29.884Z,97.30
2022-08-31T21:39:32.432Z,97.50
2022-08-31T21:44:34.289Z,97.60
2022-08-31T21:49:36.008Z,97.80
2022-08-31T21:54:41.794Z,97.80
2022-08-31T21:59:43.742Z,98.00
2022-08-31T22:04:45.565Z,98.20
2022-08-31T22:09:47.289Z,98.40
2022-08-31T22:14:50.395Z,98.70
2022-08-31T22:19:52.305Z,98.60
2022-08-31T22:24:55.285Z,98.80
2022-08-31T22:29:57.052Z,98.80
2022-08-31T22:34:58.891Z,98.80
2022-08-31T22:40:01.369Z,98.90
2022-08-31T22:45:03.649Z,98.90
2022-08-31T22:50:05.971Z,98.90
2022-08-31T22:55:09.121Z,98.90
2022-08-31T23:00:14.439Z,98.90
2022-08-31T23:05:18.437Z,98.90
2022-08-31T23:10:20.827Z,98.90
2022-08-31T23:15:22.897Z,98.90
2022-08-31T23:20:25.170Z,99.00
2022-08-31T23:25:27.109Z,99.10
2022-08-31T23:30:28.874Z,99.20
2022-08-31T23:35:30.711Z,99.30
2022-08-31T23:40:34.201Z,99.30
2022-08-31T23:45:37.702Z,99.50
2022-08-31T23:50:39.749Z,99.60
2022-08-31T23:55:46.031Z,99.60
